sensor_id;sensor_type;location;lat;lon;timestamp;pressure;altitude;pressure_sealevel;temperature;humidity
25869;BME280;13688;53.154;18.136;2023-03-16T00:05:22;101211.82;;;-3.03;100.00
25869;BME280;13688;53.154;18.136;2023-03-16T00:10:45;101192.34;;;-2.92;100.00
25869;BME280;13688;53.154;18.136;2023-03-16T00:16:08;101204.56;;;-2.86;100.00
25869;BME280;13688;53.154;18.136;2023-03-16T00:21:31;101201.68;;;-2.69;100.00
25869;BME280;13688;53.154;18.136;2023-03-16T00:26:53;101198.16;;;-2.68;100.00
25869;BME280;13688;53.154;18.136;2023-03-16T00:32:16;101210.30;;;-2.61;100.00
25869;BME280;13688;53.154;18.136;2023-03-16T00:37:42;101212.29;;;-2.75;100.00
25869;BME280;13688;53.154;18.136;2023-03-16T00:43:06;101216.06;;;-2.93;100.00
25869;BME280;13688;53.154;18.136;2023-03-16T00:48:29;101221.34;;;-2.95;100.00
25869;BME280;13688;53.154;18.136;2023-03-16T00:53:52;101219.56;;;-2.93;100.00
25869;BME280;13688;53.154;18.136;2023-03-16T00:59:15;101221.38;;;-2.96;100.00
25869;BME280;13688;53.154;18.136;2023-03-16T01:04:38;101230.92;;;-2.91;100.00
25869;BME280;13688;53.154;18.136;2023-03-16T01:10:01;101228.32;;;-2.92;100.00
25869;BME280;13688;53.154;18.136;2023-03-16T01:15:24;101228.52;;;-3.06;100.00
25869;BME280;13688;53.154;18.136;2023-03-16T01:20:47;101241.75;;;-3.12;100.00
25869;BME280;13688;53.154;18.136;2023-03-16T01:26:10;101240.09;;;-3.18;100.00
25869;BME280;13688;53.154;18.136;2023-03-16T01:31:34;101239.31;;;-3.26;100.00
25869;BME280;13688;53.154;18.136;2023-03-16T01:36:57;101239.41;;;-3.33;100.00
25869;BME280;13688;53.154;18.136;2023-03-16T01:42:20;101238.57;;;-3.38;100.00
25869;BME280;13688;53.154;18.136;2023-03-16T01:47:42;101245.61;;;-3.40;100.00
25869;BME280;13688;53.154;18.136;2023-03-16T01:53:07;101245.58;;;-3.36;100.00
25869;BME280;13688;53.154;18.136;2023-03-16T01:58:33;101245.60;;;-3.37;100.00
25869;BME280;13688;53.154;18.136;2023-03-16T02:04:04;101253.48;;;-3.37;100.00
25869;BME280;13688;53.154;18.136;2023-03-16T02:09:39;101256.98;;;-3.37;100.00
25869;BME280;13688;53.154;18.136;2023-03-16T02:15:01;101262.26;;;-3.40;100.00
25869;BME280;13688;53.154;18.136;2023-03-16T02:20:49;101270.19;;;-3.43;100.00
25869;BME280;13688;53.154;18.136;2023-03-16T02:26:40;101275.42;;;-3.41;100.00
25869;BME280;13688;53.154;18.136;2023-03-16T02:32:07;101274.45;;;-3.33;100.00
25869;BME280;13688;53.154;18.136;2023-03-16T02:37:31;101268.36;;;-3.38;100.00
25869;BME280;13688;53.154;18.136;2023-03-16T02:43:03;101271.02;;;-3.39;100.00
25869;BME280;13688;53.154;18.136;2023-03-16T02:54:05;101274.62;;;-3.48;100.00
25869;BME280;13688;53.154;18.136;2023-03-16T02:59:27;101280.77;;;-3.49;100.00
25869;BME280;13688;53.154;18.136;2023-03-16T03:04:50;101282.55;;;-3.51;100.00
25869;BME280;13688;53.154;18.136;2023-03-16T03:10:13;101278.13;;;-3.46;100.00
25869;BME280;13688;53.154;18.136;2023-03-16T03:15:35;101274.61;;;-3.45;100.00
25869;BME280;13688;53.154;18.136;2023-03-16T03:20:58;101276.38;;;-3.49;100.00
25869;BME280;13688;53.154;18.136;2023-03-16T03:26:21;101273.73;;;-3.46;100.00
25869;BME280;13688;53.154;18.136;2023-03-16T03:31:46;101283.45;;;-3.54;100.00
25869;BME280;13688;53.154;18.136;2023-03-16T03:37:09;101291.34;;;-3.54;100.00
25869;BME280;13688;53.154;18.136;2023-03-16T03:42:32;101285.23;;;-3.56;100.00
25869;BME280;13688;53.154;18.136;2023-03-16T03:47:55;101290.41;;;-3.50;100.00
25869;BME280;13688;53.154;18.136;2023-03-16T03:53:17;101284.27;;;-3.47;100.00
25869;BME280;13688;53.154;18.136;2023-03-16T03:58:40;101289.51;;;-3.46;100.00
25869;BME280;13688;53.154;18.136;2023-03-16T04:04:02;101285.98;;;-3.44;100.00
25869;BME280;13688;53.154;18.136;2023-03-16T04:09:24;101281.63;;;-3.49;100.00
25869;BME280;13688;53.154;18.136;2023-03-16T04:14:47;101290.48;;;-3.54;100.00
25869;BME280;13688;53.154;18.136;2023-03-16T04:20:10;101294.02;;;-3.57;100.00
25869;BME280;13688;53.154;18.136;2023-03-16T04:25:32;101292.31;;;-3.62;100.00
25869;BME280;13688;53.154;18.136;2023-03-16T04:30:55;101286.20;;;-3.64;100.00
25869;BME280;13688;53.154;18.136;2023-03-16T04:36:20;101304.52;;;-3.58;100.00
25869;BME280;13688;53.154;18.136;2023-03-16T04:41:43;101303.64;;;-3.56;100.00
25869;BME280;13688;53.154;18.136;2023-03-16T04:47:05;101307.20;;;-3.63;100.00
25869;BME280;13688;53.154;18.136;2023-03-16T04:52:28;101307.26;;;-3.69;100.00
25869;BME280;13688;53.154;18.136;2023-03-16T04:57:51;101315.11;;;-3.64;100.00
25869;BME280;13688;53.154;18.136;2023-03-16T05:03:14;101309.86;;;-3.67;100.00
25869;BME280;13688;53.154;18.136;2023-03-16T05:08:37;101311.64;;;-3.69;100.00
25869;BME280;13688;53.154;18.136;2023-03-16T05:13:59;101320.45;;;-3.73;100.00
25869;BME280;13688;53.154;18.136;2023-03-16T05:19:21;101316.05;;;-3.71;100.00
25869;BME280;13688;53.154;18.136;2023-03-16T05:24:44;101311.67;;;-3.71;100.00
25869;BME280;13688;53.154;18.136;2023-03-16T05:30:07;101309.86;;;-3.67;100.00
25869;BME280;13688;53.154;18.136;2023-03-16T05:35:30;101322.05;;;-3.59;100.00
25869;BME280;13688;53.154;18.136;2023-03-16T05:40:53;101317.59;;;-3.51;100.00
25869;BME280;13688;53.154;18.136;2023-03-16T05:46:16;101323.58;;;-3.36;100.00
25869;BME280;13688;53.154;18.136;2023-03-16T05:51:38;101329.60;;;-3.28;100.00
25869;BME280;13688;53.154;18.136;2023-03-16T05:57:01;101331.27;;;-3.18;100.00
25869;BME280;13688;53.154;18.136;2023-03-16T06:02:23;101339.90;;;-3.07;100.00
25869;BME280;13688;53.154;18.136;2023-03-16T06:07:46;101343.19;;;-2.91;100.00
25869;BME280;13688;53.154;18.136;2023-03-16T06:13:10;101341.27;;;-2.77;100.00
25869;BME280;13688;53.154;18.136;2023-03-16T06:18:32;101341.05;;;-2.62;100.00
25869;BME280;13688;53.154;18.136;2023-03-16T06:23:55;101341.74;;;-2.47;100.00
25869;BME280;13688;53.154;18.136;2023-03-16T06:29:18;101344.11;;;-2.29;100.00
25869;BME280;13688;53.154;18.136;2023-03-16T06:34:40;101338.50;;;-2.08;100.00
25869;BME280;13688;53.154;18.136;2023-03-16T06:40:03;101350.45;;;-1.87;100.00
25869;BME280;13688;53.154;18.136;2023-03-16T06:45:26;101357.99;;;-1.65;100.00
25869;BME280;13688;53.154;18.136;2023-03-16T06:50:50;101348.89;;;-1.48;100.00
25869;BME280;13688;53.154;18.136;2023-03-16T06:56:12;101362.75;;;-1.35;100.00
25869;BME280;13688;53.154;18.136;2023-03-16T07:01:36;101371.16;;;-1.14;100.00
25869;BME280;13688;53.154;18.136;2023-03-16T07:06:59;101366.46;;;-1.00;100.00
25869;BME280;13688;53.154;18.136;2023-03-16T07:12:22;101382.80;;;-0.81;100.00
25869;BME280;13688;53.154;18.136;2023-03-16T07:17:46;101377.89;;;-0.56;100.00
25869;BME280;13688;53.154;18.136;2023-03-16T07:23:09;101386.63;;;-0.14;100.00
25869;BME280;13688;53.154;18.136;2023-03-16T07:28:33;101381.48;;;0.17;100.00
25869;BME280;13688;53.154;18.136;2023-03-16T07:33:56;101411.17;;;0.28;100.00
25869;BME280;13688;53.154;18.136;2023-03-16T07:39:18;101390.70;;;0.36;100.00
25869;BME280;13688;53.154;18.136;2023-03-16T07:44:40;101394.38;;;0.65;100.00
25869;BME280;13688;53.154;18.136;2023-03-16T07:50:04;101397.61;;;0.76;100.00
25869;BME280;13688;53.154;18.136;2023-03-16T07:55:28;101393.75;;;0.89;95.42
25869;BME280;13688;53.154;18.136;2023-03-16T08:00:54;101393.31;;;1.04;90.46
25869;BME280;13688;53.154;18.136;2023-03-16T08:06:16;101399.86;;;0.91;86.67
25869;BME280;13688;53.154;18.136;2023-03-16T08:11:38;101401.87;;;1.14;84.29
25869;BME280;13688;53.154;18.136;2023-03-16T08:17:00;101389.78;;;1.35;82.59
25869;BME280;13688;53.154;18.136;2023-03-16T08:22:23;101407.73;;;1.25;80.82
25869;BME280;13688;53.154;18.136;2023-03-16T08:27:46;101397.73;;;1.35;79.61
25869;BME280;13688;53.154;18.136;2023-03-16T08:33:08;101410.98;;;1.35;78.75
25869;BME280;13688;53.154;18.136;2023-03-16T08:38:32;101404.80;;;1.36;78.16
25869;BME280;13688;53.154;18.136;2023-03-16T08:43:58;101414.22;;;1.76;77.82
25869;BME280;13688;53.154;18.136;2023-03-16T08:49:21;101430.46;;;1.93;75.95
25869;BME280;13688;53.154;18.136;2023-03-16T08:54:46;101411.38;;;2.10;74.22
25869;BME280;13688;53.154;18.136;2023-03-16T09:00:10;101399.80;;;2.12;73.09
25869;BME280;13688;53.154;18.136;2023-03-16T09:05:34;101419.39;;;2.08;72.56
25869;BME280;13688;53.154;18.136;2023-03-16T09:11:00;101422.20;;;2.04;72.46
25869;BME280;13688;53.154;18.136;2023-03-16T09:16:24;101438.43;;;2.21;72.73
25869;BME280;13688;53.154;18.136;2023-03-16T09:21:49;101435.25;;;2.10;72.42
25869;BME280;13688;53.154;18.136;2023-03-16T09:27:13;101448.75;;;2.02;72.90
25869;BME280;13688;53.154;18.136;2023-03-16T09:32:36;101453.59;;;2.17;73.22
25869;BME280;13688;53.154;18.136;2023-03-16T09:38:00;101455.09;;;2.26;73.27
25869;BME280;13688;53.154;18.136;2023-03-16T09:49:18;101467.72;;;2.18;72.80
25869;BME280;13688;53.154;18.136;2023-03-16T09:54:50;101466.41;;;2.31;72.93
25869;BME280;13688;53.154;18.136;2023-03-16T10:00:25;101481.28;;;2.37;72.72
25869;BME280;13688;53.154;18.136;2023-03-16T10:06:00;101486.43;;;2.41;72.50
25869;BME280;13688;53.154;18.136;2023-03-16T10:11:45;101481.09;;;2.43;72.30
25869;BME280;13688;53.154;18.136;2023-03-16T10:17:16;101477.55;;;2.70;72.26
25869;BME280;13688;53.154;18.136;2023-03-16T10:22:47;101495.52;;;2.62;71.34
25869;BME280;13688;53.154;18.136;2023-03-16T10:28:19;101492.13;;;2.57;71.51
25869;BME280;13688;53.154;18.136;2023-03-16T10:33:41;101499.46;;;2.49;71.83
25869;BME280;13688;53.154;18.136;2023-03-16T10:39:12;101492.92;;;2.33;72.73
25869;BME280;13688;53.154;18.136;2023-03-16T10:44:38;101501.87;;;2.28;73.89
25869;BME280;13688;53.154;18.136;2023-03-16T10:50:13;101512.08;;;2.42;74.57
25869;BME280;13688;53.154;18.136;2023-03-16T10:55:43;101495.24;;;2.70;74.32
25869;BME280;13688;53.154;18.136;2023-03-16T11:01:11;101501.12;;;2.79;72.96
25869;BME280;13688;53.154;18.136;2023-03-16T11:06:37;101512.53;;;2.83;71.62
25869;BME280;13688;53.154;18.136;2023-03-16T11:12:30;101518.09;;;3.02;71.03
25869;BME280;13688;53.154;18.136;2023-03-16T11:17:54;101517.19;;;3.28;70.61
25869;BME280;13688;53.154;18.136;2023-03-16T11:23:21;101522.98;;;3.14;70.24
25869;BME280;13688;53.154;18.136;2023-03-16T11:28:55;101504.02;;;3.25;70.66
25869;BME280;13688;53.154;18.136;2023-03-16T11:34:33;101520.39;;;3.37;70.64
25869;BME280;13688;53.154;18.136;2023-03-16T11:40:16;101540.08;;;3.57;70.76
25869;BME280;13688;53.154;18.136;2023-03-16T11:46:24;101513.54;;;3.80;70.06
25869;BME280;13688;53.154;18.136;2023-03-16T11:51:34;101517.12;;;4.02;69.53
25869;BME280;13688;53.154;18.136;2023-03-16T12:20:58;101529.81;;;3.48;74.82
25869;BME280;13688;53.154;18.136;2023-03-16T12:26:31;101524.45;;;3.72;74.15
25869;BME280;13688;53.154;18.136;2023-03-16T12:43:16;101535.44;;;3.38;73.19
25869;BME280;13688;53.154;18.136;2023-03-16T12:48:39;101537.78;;;3.48;73.63
25869;BME280;13688;53.154;18.136;2023-03-16T12:54:03;101557.58;;;3.39;73.53
25869;BME280;13688;53.154;18.136;2023-03-16T12:59:53;101543.79;;;3.53;73.33
25869;BME280;13688;53.154;18.136;2023-03-16T13:05:29;101558.87;;;3.52;73.25
25869;BME280;13688;53.154;18.136;2023-03-16T13:11:10;101566.81;;;3.27;73.40
25869;BME280;13688;53.154;18.136;2023-03-16T13:16:35;101567.11;;;3.44;75.05
25869;BME280;13688;53.154;18.136;2023-03-16T13:22:24;101562.40;;;3.53;74.95
25869;BME280;13688;53.154;18.136;2023-03-16T13:27:50;101568.27;;;3.62;74.19
25869;BME280;13688;53.154;18.136;2023-03-16T13:33:25;101569.57;;;3.51;73.31
25869;BME280;13688;53.154;18.136;2023-03-16T13:38:54;101568.47;;;3.56;72.54
25869;BME280;13688;53.154;18.136;2023-03-16T13:44:23;101579.02;;;3.59;70.93
25869;BME280;13688;53.154;18.136;2023-03-16T13:49:58;101581.77;;;3.56;69.58
25869;BME280;13688;53.154;18.136;2023-03-16T13:55:27;101590.08;;;3.72;68.62
25869;BME280;13688;53.154;18.136;2023-03-16T14:00:59;101579.47;;;3.95;67.82
25869;BME280;13688;53.154;18.136;2023-03-16T14:06:35;101575.58;;;4.06;67.27
25869;BME280;13688;53.154;18.136;2023-03-16T14:12:16;101587.66;;;4.38;66.46
25869;BME280;13688;53.154;18.136;2023-03-16T14:17:41;101579.72;;;5.86;66.29
25869;BME280;13688;53.154;18.136;2023-03-16T14:23:04;101569.71;;;6.12;60.07
25869;BME280;13688;53.154;18.136;2023-03-16T14:28:35;101570.17;;;5.40;59.60
25869;BME280;13688;53.154;18.136;2023-03-16T14:34:01;101598.42;;;5.02;60.74
25869;BME280;13688;53.154;18.136;2023-03-16T14:39:38;101575.51;;;4.98;61.25
25869;BME280;13688;53.154;18.136;2023-03-16T14:45:02;101584.23;;;5.01;60.53
25869;BME280;13688;53.154;18.136;2023-03-16T14:50:30;101584.20;;;5.03;58.66
25869;BME280;13688;53.154;18.136;2023-03-16T14:55:55;101577.52;;;6.35;56.42
25869;BME280;13688;53.154;18.136;2023-03-16T15:01:20;101580.80;;;6.02;54.47
25869;BME280;13688;53.154;18.136;2023-03-16T15:06:43;101577.08;;;7.18;57.39
25869;BME280;13688;53.154;18.136;2023-03-16T15:12:13;101574.77;;;6.74;57.75
25869;BME280;13688;53.154;18.136;2023-03-16T15:17:35;101573.03;;;6.36;58.46
25869;BME280;13688;53.154;18.136;2023-03-16T15:22:59;101576.28;;;6.23;57.04
25869;BME280;13688;53.154;18.136;2023-03-16T15:28:25;101588.47;;;5.90;56.99
25869;BME280;13688;53.154;18.136;2023-03-16T15:33:48;101590.00;;;5.55;54.64
25869;BME280;13688;53.154;18.136;2023-03-16T15:39:15;101589.16;;;5.95;53.13
25869;BME280;13688;53.154;18.136;2023-03-16T15:44:36;101597.73;;;6.22;50.83
25869;BME280;13688;53.154;18.136;2023-03-16T15:49:59;101590.33;;;7.73;50.22
25869;BME280;13688;53.154;18.136;2023-03-16T16:00:57;101577.45;;;7.97;45.44
25869;BME280;13688;53.154;18.136;2023-03-16T16:06:22;101586.14;;;8.18;44.54
25869;BME280;13688;53.154;18.136;2023-03-16T16:11:45;101599.56;;;8.51;43.66
25869;BME280;13688;53.154;18.136;2023-03-16T16:17:10;101609.37;;;7.84;43.35
25869;BME280;13688;53.154;18.136;2023-03-16T16:22:47;101609.80;;;7.23;45.82
25869;BME280;13688;53.154;18.136;2023-03-16T16:28:23;101614.73;;;6.77;46.79
25869;BME280;13688;53.154;18.136;2023-03-16T16:33:47;101630.18;;;6.71;47.00
25869;BME280;13688;53.154;18.136;2023-03-16T16:39:09;101636.91;;;5.81;49.20
25869;BME280;13688;53.154;18.136;2023-03-16T16:44:33;101642.12;;;4.76;51.47
25869;BME280;13688;53.154;18.136;2023-03-16T16:49:56;101652.58;;;4.34;53.95
25869;BME280;13688;53.154;18.136;2023-03-16T16:55:22;101654.53;;;3.80;56.89
25869;BME280;13688;53.154;18.136;2023-03-16T17:00:51;101656.80;;;3.39;58.35
25869;BME280;13688;53.154;18.136;2023-03-16T17:06:15;101673.19;;;2.98;59.70
25869;BME280;13688;53.154;18.136;2023-03-16T17:11:38;101672.60;;;2.58;60.85
25869;BME280;13688;53.154;18.136;2023-03-16T17:17:05;101676.66;;;2.41;61.63
25869;BME280;13688;53.154;18.136;2023-03-16T17:22:31;101679.55;;;2.00;62.37
25869;BME280;13688;53.154;18.136;2023-03-16T17:27:55;101687.18;;;1.44;64.67
25869;BME280;13688;53.154;18.136;2023-03-16T17:33:20;101686.05;;;1.19;66.24
25869;BME280;13688;53.154;18.136;2023-03-16T17:38:43;101693.63;;;0.97;67.14
25869;BME280;13688;53.154;18.136;2023-03-16T17:44:09;101687.39;;;0.60;68.27
25869;BME280;13688;53.154;18.136;2023-03-16T17:49:32;101686.25;;;0.28;70.28
25869;BME280;13688;53.154;18.136;2023-03-16T17:54:57;101688.89;;;0.28;71.77
25869;BME280;13688;53.154;18.136;2023-03-16T18:00:26;101698.85;;;0.15;72.67
25869;BME280;13688;53.154;18.136;2023-03-16T18:05:51;101717.28;;;-0.30;73.60
25869;BME280;13688;53.154;18.136;2023-03-16T18:11:16;101727.59;;;-0.68;74.97
25869;BME280;13688;53.154;18.136;2023-03-16T18:16:51;101725.25;;;-0.87;76.62
25869;BME280;13688;53.154;18.136;2023-03-16T18:22:19;101723.81;;;-1.10;78.03
25869;BME280;13688;53.154;18.136;2023-03-16T18:27:42;101726.72;;;-1.30;79.10
25869;BME280;13688;53.154;18.136;2023-03-16T18:33:06;101723.54;;;-1.58;80.08
25869;BME280;13688;53.154;18.136;2023-03-16T18:38:39;101727.07;;;-1.59;81.09
25869;BME280;13688;53.154;18.136;2023-03-16T18:49:41;101730.25;;;-1.31;84.02
25869;BME280;13688;53.154;18.136;2023-03-16T18:55:12;101733.80;;;-1.35;85.19
25869;BME280;13688;53.154;18.136;2023-03-16T19:00:32;101733.92;;;-1.43;86.00
25869;BME280;13688;53.154;18.136;2023-03-16T19:05:55;101740.11;;;-1.47;86.81
25869;BME280;13688;53.154;18.136;2023-03-16T19:11:19;101741.08;;;-1.56;87.57
25869;BME280;13688;53.154;18.136;2023-03-16T19:16:42;101741.34;;;-1.79;87.91
25869;BME280;13688;53.154;18.136;2023-03-16T19:22:11;101747.49;;;-1.78;88.51
25869;BME280;13688;53.154;18.136;2023-03-16T19:27:34;101752.03;;;-1.94;88.96
25869;BME280;13688;53.154;18.136;2023-03-16T19:32:58;101749.56;;;-2.09;89.44
25869;BME280;13688;53.154;18.136;2023-03-16T19:38:31;101762.63;;;-1.98;89.89
25869;BME280;13688;53.154;18.136;2023-03-16T19:43:58;101771.50;;;-2.07;90.85
25869;BME280;13688;53.154;18.136;2023-03-16T19:49:24;101779.32;;;-1.98;91.87
25869;BME280;13688;53.154;18.136;2023-03-16T19:54:46;101785.56;;;-2.08;92.74
25869;BME280;13688;53.154;18.136;2023-03-16T20:00:14;101787.42;;;-2.19;93.42
25869;BME280;13688;53.154;18.136;2023-03-16T20:05:36;101784.62;;;-2.01;94.48
25869;BME280;13688;53.154;18.136;2023-03-16T20:11:01;101775.06;;;-2.11;95.25
25869;BME280;13688;53.154;18.136;2023-03-16T20:16:41;101782.09;;;-2.12;96.05
25869;BME280;13688;53.154;18.136;2023-03-16T20:22:15;101775.06;;;-2.14;96.82
25869;BME280;13688;53.154;18.136;2023-03-16T20:27:36;101766.45;;;-2.35;97.28
25869;BME280;13688;53.154;18.136;2023-03-16T20:32:59;101756.90;;;-2.46;97.84
25869;BME280;13688;53.154;18.136;2023-03-16T20:38:23;101749.09;;;-2.62;98.25
25869;BME280;13688;53.154;18.136;2023-03-16T20:43:46;101761.49;;;-2.76;98.61
25869;BME280;13688;53.154;18.136;2023-03-16T20:54:49;101762.26;;;-2.58;99.86
25869;BME280;13688;53.154;18.136;2023-03-16T21:00:29;101758.70;;;-2.54;100.00
25869;BME280;13688;53.154;18.136;2023-03-16T21:05:54;101769.30;;;-2.61;100.00
25869;BME280;13688;53.154;18.136;2023-03-16T21:11:26;101774.55;;;-2.62;100.00
25869;BME280;13688;53.154;18.136;2023-03-16T21:16:52;101765.78;;;-2.60;100.00
25869;BME280;13688;53.154;18.136;2023-03-16T21:22:25;101765.91;;;-2.82;100.00
25869;BME280;13688;53.154;18.136;2023-03-16T21:27:48;101761.45;;;-2.71;100.00
25869;BME280;13688;53.154;18.136;2023-03-16T21:38:52;101763.98;;;-2.56;100.00
25869;BME280;13688;53.154;18.136;2023-03-16T21:44:15;101743.95;;;-2.80;100.00
25869;BME280;13688;53.154;18.136;2023-03-16T21:49:38;101766.78;;;-2.82;100.00
25869;BME280;13688;53.154;18.136;2023-03-16T21:55:04;101768.58;;;-2.90;100.00
25869;BME280;13688;53.154;18.136;2023-03-16T22:00:33;101775.66;;;-2.97;100.00
25869;BME280;13688;53.154;18.136;2023-03-16T22:05:56;101778.27;;;-2.94;100.00
25869;BME280;13688;53.154;18.136;2023-03-16T22:11:23;101777.39;;;-2.94;100.00
25869;BME280;13688;53.154;18.136;2023-03-16T22:16:46;101777.42;;;-3.02;100.00
25869;BME280;13688;53.154;18.136;2023-03-16T22:22:15;101791.39;;;-2.87;100.00
25869;BME280;13688;53.154;18.136;2023-03-16T22:27:35;101790.51;;;-2.86;100.00
25869;BME280;13688;53.154;18.136;2023-03-16T22:32:59;101798.41;;;-2.91;100.00
25869;BME280;13688;53.154;18.136;2023-03-16T22:38:22;101794.90;;;-2.87;100.00
25869;BME280;13688;53.154;18.136;2023-03-16T22:43:46;101803.56;;;-2.71;100.00
25869;BME280;13688;53.154;18.136;2023-03-16T22:49:20;101802.69;;;-2.67;100.00
25869;BME280;13688;53.154;18.136;2023-03-16T22:54:43;101795.66;;;-2.67;100.00
25869;BME280;13688;53.154;18.136;2023-03-16T23:00:09;101801.71;;;-2.51;100.00
25869;BME280;13688;53.154;18.136;2023-03-16T23:05:33;101799.00;;;-2.40;100.00
25869;BME280;13688;53.154;18.136;2023-03-16T23:10:56;101806.80;;;-2.28;100.00
25869;BME280;13688;53.154;18.136;2023-03-16T23:16:28;101805.86;;;-2.22;100.00
25869;BME280;13688;53.154;18.136;2023-03-16T23:21:52;101801.35;;;-2.07;100.00
25869;BME280;13688;53.154;18.136;2023-03-16T23:27:25;101786.39;;;-2.05;100.00
25869;BME280;13688;53.154;18.136;2023-03-16T23:32:41;101788.18;;;-2.07;100.00
25869;BME280;13688;53.154;18.136;2023-03-16T23:38:05;101782.91;;;-2.07;100.00
25869;BME280;13688;53.154;18.136;2023-03-16T23:43:28;101782.92;;;-2.08;100.00
25869;BME280;13688;53.154;18.136;2023-03-16T23:48:51;101784.51;;;-1.89;100.00
25869;BME280;13688;53.154;18.136;2023-03-16T23:54:23;101778.31;;;-1.83;100.00
25869;BME280;13688;53.154;18.136;2023-03-16T23:59:46;101774.84;;;-1.88;100.00
